sensor_id;sensor_type;location;lat;lon;timestamp;temperature;humidity
11229;DHT22;5671;47.936;8.716;2024-03-07T00:00:15;3.00;88.70
11229;DHT22;5671;47.936;8.716;2024-03-07T00:02:44;3.00;88.70
11229;DHT22;5671;47.936;8.716;2024-03-07T00:05:11;3.00;88.80
11229;DHT22;5671;47.936;8.716;2024-03-07T00:07:38;3.00;88.90
11229;DHT22;5671;47.936;8.716;2024-03-07T00:10:06;3.00;88.80
11229;DHT22;5671;47.936;8.716;2024-03-07T00:12:34;3.00;89.00
11229;DHT22;5671;47.936;8.716;2024-03-07T00:15:03;2.90;89.10
11229;DHT22;5671;47.936;8.716;2024-03-07T00:17:31;3.00;89.30
11229;DHT22;5671;47.936;8.716;2024-03-07T00:19:57;3.00;89.10
11229;DHT22;5671;47.936;8.716;2024-03-07T00:22:24;3.00;89.20
11229;DHT22;5671;47.936;8.716;2024-03-07T00:24:52;2.90;89.30
11229;DHT22;5671;47.936;8.716;2024-03-07T00:27:19;2.90;89.20
11229;DHT22;5671;47.936;8.716;2024-03-07T00:29:46;3.00;89.10
11229;DHT22;5671;47.936;8.716;2024-03-07T00:32:19;2.90;89.00
11229;DHT22;5671;47.936;8.716;2024-03-07T00:34:48;2.90;89.00
11229;DHT22;5671;47.936;8.716;2024-03-07T00:37:15;2.90;89.20
11229;DHT22;5671;47.936;8.716;2024-03-07T00:39:42;2.90;89.30
11229;DHT22;5671;47.936;8.716;2024-03-07T00:42:09;2.90;89.40
11229;DHT22;5671;47.936;8.716;2024-03-07T00:44:37;2.90;89.50
11229;DHT22;5671;47.936;8.716;2024-03-07T00:47:04;2.90;89.50
11229;DHT22;5671;47.936;8.716;2024-03-07T00:49:32;2.90;89.80
11229;DHT22;5671;47.936;8.716;2024-03-07T00:51:59;2.90;89.90
11229;DHT22;5671;47.936;8.716;2024-03-07T00:54:26;2.90;89.80
11229;DHT22;5671;47.936;8.716;2024-03-07T00:56:53;2.90;89.70
11229;DHT22;5671;47.936;8.716;2024-03-07T00:59:20;2.90;89.70
11229;DHT22;5671;47.936;8.716;2024-03-07T01:01:48;2.90;89.60
11229;DHT22;5671;47.936;8.716;2024-03-07T01:04:15;2.90;89.70
11229;DHT22;5671;47.936;8.716;2024-03-07T01:06:44;2.90;89.90
11229;DHT22;5671;47.936;8.716;2024-03-07T01:09:11;2.90;90.10
11229;DHT22;5671;47.936;8.716;2024-03-07T01:11:43;2.90;90.30
11229;DHT22;5671;47.936;8.716;2024-03-07T01:14:10;2.90;90.50
11229;DHT22;5671;47.936;8.716;2024-03-07T01:16:37;2.90;90.60
11229;DHT22;5671;47.936;8.716;2024-03-07T01:19:04;2.90;90.70
11229;DHT22;5671;47.936;8.716;2024-03-07T01:21:32;2.80;90.80
11229;DHT22;5671;47.936;8.716;2024-03-07T01:24:01;2.90;90.70
11229;DHT22;5671;47.936;8.716;2024-03-07T01:26:28;2.90;90.50
11229;DHT22;5671;47.936;8.716;2024-03-07T01:28:55;2.90;90.60
11229;DHT22;5671;47.936;8.716;2024-03-07T01:31:23;2.90;90.40
11229;DHT22;5671;47.936;8.716;2024-03-07T01:33:50;2.90;90.40
11229;DHT22;5671;47.936;8.716;2024-03-07T01:36:16;3.00;90.30
11229;DHT22;5671;47.936;8.716;2024-03-07T01:38:43;3.00;90.20
11229;DHT22;5671;47.936;8.716;2024-03-07T01:41:11;3.00;90.00
11229;DHT22;5671;47.936;8.716;2024-03-07T01:43:39;3.00;89.90
11229;DHT22;5671;47.936;8.716;2024-03-07T01:46:07;3.00;89.90
11229;DHT22;5671;47.936;8.716;2024-03-07T01:48:34;3.00;90.30
11229;DHT22;5671;47.936;8.716;2024-03-07T01:51:01;3.00;90.50
11229;DHT22;5671;47.936;8.716;2024-03-07T01:53:30;3.10;90.60
11229;DHT22;5671;47.936;8.716;2024-03-07T01:55:57;3.10;90.80
11229;DHT22;5671;47.936;8.716;2024-03-07T01:58:26;3.10;90.90
11229;DHT22;5671;47.936;8.716;2024-03-07T02:00:53;3.10;90.90
11229;DHT22;5671;47.936;8.716;2024-03-07T02:03:20;3.10;90.90
11229;DHT22;5671;47.936;8.716;2024-03-07T02:05:47;3.10;90.80
11229;DHT22;5671;47.936;8.716;2024-03-07T02:08:14;3.10;90.90
11229;DHT22;5671;47.936;8.716;2024-03-07T02:10:41;3.10;91.00
11229;DHT22;5671;47.936;8.716;2024-03-07T02:13:08;3.20;91.10
11229;DHT22;5671;47.936;8.716;2024-03-07T02:15:36;3.20;91.10
11229;DHT22;5671;47.936;8.716;2024-03-07T02:18:03;3.20;90.80
11229;DHT22;5671;47.936;8.716;2024-03-07T02:20:31;3.20;90.80
11229;DHT22;5671;47.936;8.716;2024-03-07T02:22:59;3.20;90.60
11229;DHT22;5671;47.936;8.716;2024-03-07T02:25:26;3.20;90.50
11229;DHT22;5671;47.936;8.716;2024-03-07T02:27:53;3.20;90.50
11229;DHT22;5671;47.936;8.716;2024-03-07T02:30:19;3.20;90.50
11229;DHT22;5671;47.936;8.716;2024-03-07T02:32:47;3.20;90.80
11229;DHT22;5671;47.936;8.716;2024-03-07T02:35:17;3.20;90.80
11229;DHT22;5671;47.936;8.716;2024-03-07T02:37:45;3.20;90.90
11229;DHT22;5671;47.936;8.716;2024-03-07T02:40:14;3.10;91.00
11229;DHT22;5671;47.936;8.716;2024-03-07T02:42:41;3.20;91.00
11229;DHT22;5671;47.936;8.716;2024-03-07T02:45:08;3.20;90.90
11229;DHT22;5671;47.936;8.716;2024-03-07T02:47:40;3.20;90.70
11229;DHT22;5671;47.936;8.716;2024-03-07T02:50:08;3.20;90.50
11229;DHT22;5671;47.936;8.716;2024-03-07T02:52:35;3.20;90.50
11229;DHT22;5671;47.936;8.716;2024-03-07T02:55:03;3.20;90.70
11229;DHT22;5671;47.936;8.716;2024-03-07T02:57:32;3.20;90.80
11229;DHT22;5671;47.936;8.716;2024-03-07T02:59:59;3.20;90.60
11229;DHT22;5671;47.936;8.716;2024-03-07T03:02:26;3.20;90.50
11229;DHT22;5671;47.936;8.716;2024-03-07T03:04:53;3.20;90.30
11229;DHT22;5671;47.936;8.716;2024-03-07T03:07:21;3.20;90.30
11229;DHT22;5671;47.936;8.716;2024-03-07T03:09:47;3.20;90.20
11229;DHT22;5671;47.936;8.716;2024-03-07T03:12:14;3.20;90.30
11229;DHT22;5671;47.936;8.716;2024-03-07T03:14:43;3.20;90.40
11229;DHT22;5671;47.936;8.716;2024-03-07T03:17:10;3.20;90.30
11229;DHT22;5671;47.936;8.716;2024-03-07T03:19:36;3.30;90.30
11229;DHT22;5671;47.936;8.716;2024-03-07T03:22:04;3.30;90.30
11229;DHT22;5671;47.936;8.716;2024-03-07T03:24:30;3.30;90.30
11229;DHT22;5671;47.936;8.716;2024-03-07T03:26:57;3.30;90.40
11229;DHT22;5671;47.936;8.716;2024-03-07T03:29:24;3.30;90.20
11229;DHT22;5671;47.936;8.716;2024-03-07T03:31:55;3.30;90.10
11229;DHT22;5671;47.936;8.716;2024-03-07T03:34:22;3.30;90.10
11229;DHT22;5671;47.936;8.716;2024-03-07T03:36:49;3.30;90.10
11229;DHT22;5671;47.936;8.716;2024-03-07T03:39:16;3.30;90.00
11229;DHT22;5671;47.936;8.716;2024-03-07T03:41:46;3.30;89.90
11229;DHT22;5671;47.936;8.716;2024-03-07T03:44:13;3.30;89.80
11229;DHT22;5671;47.936;8.716;2024-03-07T03:46:40;3.40;90.00
11229;DHT22;5671;47.936;8.716;2024-03-07T03:49:08;3.40;90.00
11229;DHT22;5671;47.936;8.716;2024-03-07T03:51:35;3.40;89.90
11229;DHT22;5671;47.936;8.716;2024-03-07T03:54:02;3.40;89.80
11229;DHT22;5671;47.936;8.716;2024-03-07T03:56:29;3.30;89.80
11229;DHT22;5671;47.936;8.716;2024-03-07T03:58:57;3.30;89.80
11229;DHT22;5671;47.936;8.716;2024-03-07T04:01:24;3.30;89.80
11229;DHT22;5671;47.936;8.716;2024-03-07T04:03:51;3.40;89.60
11229;DHT22;5671;47.936;8.716;2024-03-07T04:06:19;3.30;89.30
11229;DHT22;5671;47.936;8.716;2024-03-07T04:08:46;3.30;89.00
11229;DHT22;5671;47.936;8.716;2024-03-07T04:11:13;3.30;88.80
11229;DHT22;5671;47.936;8.716;2024-03-07T04:13:39;3.30;88.70
11229;DHT22;5671;47.936;8.716;2024-03-07T04:16:06;3.30;88.00
11229;DHT22;5671;47.936;8.716;2024-03-07T04:18:34;3.30;87.90
11229;DHT22;5671;47.936;8.716;2024-03-07T04:21:00;3.30;88.00
11229;DHT22;5671;47.936;8.716;2024-03-07T04:23:29;3.20;88.20
11229;DHT22;5671;47.936;8.716;2024-03-07T04:25:55;3.20;88.20
11229;DHT22;5671;47.936;8.716;2024-03-07T04:28:22;3.20;88.20
11229;DHT22;5671;47.936;8.716;2024-03-07T04:30:49;3.10;88.30
11229;DHT22;5671;47.936;8.716;2024-03-07T04:33:18;3.10;88.20
11229;DHT22;5671;47.936;8.716;2024-03-07T04:35:46;3.10;88.10
11229;DHT22;5671;47.936;8.716;2024-03-07T04:38:13;3.00;87.90
11229;DHT22;5671;47.936;8.716;2024-03-07T04:40:41;3.00;87.70
11229;DHT22;5671;47.936;8.716;2024-03-07T04:43:08;3.00;88.00
11229;DHT22;5671;47.936;8.716;2024-03-07T04:45:36;2.90;88.40
11229;DHT22;5671;47.936;8.716;2024-03-07T04:48:04;3.00;88.30
11229;DHT22;5671;47.936;8.716;2024-03-07T04:50:31;2.90;88.00
11229;DHT22;5671;47.936;8.716;2024-03-07T04:52:58;2.90;88.20
11229;DHT22;5671;47.936;8.716;2024-03-07T04:55:25;2.90;87.90
11229;DHT22;5671;47.936;8.716;2024-03-07T04:57:53;2.90;88.00
11229;DHT22;5671;47.936;8.716;2024-03-07T05:00:20;2.90;87.90
11229;DHT22;5671;47.936;8.716;2024-03-07T05:02:48;2.90;87.90
11229;DHT22;5671;47.936;8.716;2024-03-07T05:05:15;2.90;88.00
11229;DHT22;5671;47.936;8.716;2024-03-07T05:07:47;2.80;87.80
11229;DHT22;5671;47.936;8.716;2024-03-07T05:10:15;2.80;87.80
11229;DHT22;5671;47.936;8.716;2024-03-07T05:12:42;2.80;88.00
11229;DHT22;5671;47.936;8.716;2024-03-07T05:15:10;2.80;86.70
11229;DHT22;5671;47.936;8.716;2024-03-07T05:17:37;2.80;86.40
11229;DHT22;5671;47.936;8.716;2024-03-07T05:20:05;2.80;86.30
11229;DHT22;5671;47.936;8.716;2024-03-07T05:22:35;2.70;85.70
11229;DHT22;5671;47.936;8.716;2024-03-07T05:25:05;2.70;85.30
11229;DHT22;5671;47.936;8.716;2024-03-07T05:27:32;2.70;85.90
11229;DHT22;5671;47.936;8.716;2024-03-07T05:29:59;2.70;85.80
11229;DHT22;5671;47.936;8.716;2024-03-07T05:32:27;2.70;85.80
11229;DHT22;5671;47.936;8.716;2024-03-07T05:34:54;2.60;85.90
11229;DHT22;5671;47.936;8.716;2024-03-07T05:37:21;2.60;86.00
11229;DHT22;5671;47.936;8.716;2024-03-07T05:39:49;2.60;85.90
11229;DHT22;5671;47.936;8.716;2024-03-07T05:42:16;2.60;85.70
11229;DHT22;5671;47.936;8.716;2024-03-07T05:44:43;2.60;85.50
11229;DHT22;5671;47.936;8.716;2024-03-07T05:47:10;2.60;85.60
11229;DHT22;5671;47.936;8.716;2024-03-07T05:49:40;2.50;85.80
11229;DHT22;5671;47.936;8.716;2024-03-07T05:52:07;2.50;85.70
11229;DHT22;5671;47.936;8.716;2024-03-07T05:54:34;2.40;85.30
11229;DHT22;5671;47.936;8.716;2024-03-07T05:57:02;2.40;85.50
11229;DHT22;5671;47.936;8.716;2024-03-07T05:59:29;2.30;85.40
11229;DHT22;5671;47.936;8.716;2024-03-07T06:01:56;2.30;85.50
11229;DHT22;5671;47.936;8.716;2024-03-07T06:04:23;2.30;85.50
11229;DHT22;5671;47.936;8.716;2024-03-07T06:06:51;2.30;85.20
11229;DHT22;5671;47.936;8.716;2024-03-07T06:09:19;2.20;85.50
11229;DHT22;5671;47.936;8.716;2024-03-07T06:11:48;2.20;85.50
11229;DHT22;5671;47.936;8.716;2024-03-07T06:14:15;2.20;85.50
11229;DHT22;5671;47.936;8.716;2024-03-07T06:16:42;2.20;85.70
11229;DHT22;5671;47.936;8.716;2024-03-07T06:19:10;2.10;85.50
11229;DHT22;5671;47.936;8.716;2024-03-07T06:21:39;2.10;85.60
11229;DHT22;5671;47.936;8.716;2024-03-07T06:24:07;2.10;85.70
11229;DHT22;5671;47.936;8.716;2024-03-07T06:26:37;2.10;85.60
11229;DHT22;5671;47.936;8.716;2024-03-07T06:29:12;2.10;85.70
11229;DHT22;5671;47.936;8.716;2024-03-07T06:31:38;2.00;85.90
11229;DHT22;5671;47.936;8.716;2024-03-07T06:34:05;2.00;86.00
11229;DHT22;5671;47.936;8.716;2024-03-07T06:36:34;2.00;86.00
11229;DHT22;5671;47.936;8.716;2024-03-07T06:39:00;2.00;86.20
11229;DHT22;5671;47.936;8.716;2024-03-07T06:41:29;2.00;86.30
11229;DHT22;5671;47.936;8.716;2024-03-07T06:43:56;2.00;86.30
11229;DHT22;5671;47.936;8.716;2024-03-07T06:46:23;2.00;86.70
11229;DHT22;5671;47.936;8.716;2024-03-07T06:48:50;2.00;86.90
11229;DHT22;5671;47.936;8.716;2024-03-07T06:51:17;2.00;86.80
11229;DHT22;5671;47.936;8.716;2024-03-07T06:53:45;2.00;87.20
11229;DHT22;5671;47.936;8.716;2024-03-07T06:56:12;2.00;87.10
11229;DHT22;5671;47.936;8.716;2024-03-07T06:58:40;1.90;87.30
11229;DHT22;5671;47.936;8.716;2024-03-07T07:01:08;1.90;87.30
11229;DHT22;5671;47.936;8.716;2024-03-07T07:03:36;1.90;87.60
11229;DHT22;5671;47.936;8.716;2024-03-07T07:06:03;1.80;87.90
11229;DHT22;5671;47.936;8.716;2024-03-07T07:08:31;1.90;87.80
11229;DHT22;5671;47.936;8.716;2024-03-07T07:10:58;1.90;87.90
11229;DHT22;5671;47.936;8.716;2024-03-07T07:13:25;1.90;88.10
11229;DHT22;5671;47.936;8.716;2024-03-07T07:15:53;1.90;88.00
11229;DHT22;5671;47.936;8.716;2024-03-07T07:18:20;1.90;88.00
11229;DHT22;5671;47.936;8.716;2024-03-07T07:20:49;1.90;88.00
11229;DHT22;5671;47.936;8.716;2024-03-07T07:23:17;2.00;88.10
11229;DHT22;5671;47.936;8.716;2024-03-07T07:25:44;2.00;88.20
11229;DHT22;5671;47.936;8.716;2024-03-07T07:28:11;2.00;88.00
11229;DHT22;5671;47.936;8.716;2024-03-07T07:30:39;2.10;88.70
11229;DHT22;5671;47.936;8.716;2024-03-07T07:33:07;2.10;88.50
11229;DHT22;5671;47.936;8.716;2024-03-07T07:35:34;2.10;88.50
11229;DHT22;5671;47.936;8.716;2024-03-07T07:38:01;2.20;88.80
11229;DHT22;5671;47.936;8.716;2024-03-07T07:40:27;2.20;88.80
11229;DHT22;5671;47.936;8.716;2024-03-07T07:42:56;2.20;88.30
11229;DHT22;5671;47.936;8.716;2024-03-07T07:45:24;2.20;88.20
11229;DHT22;5671;47.936;8.716;2024-03-07T07:47:52;2.20;87.60
11229;DHT22;5671;47.936;8.716;2024-03-07T07:50:21;2.30;87.70
11229;DHT22;5671;47.936;8.716;2024-03-07T07:52:49;2.30;86.90
11229;DHT22;5671;47.936;8.716;2024-03-07T07:55:17;2.30;86.20
11229;DHT22;5671;47.936;8.716;2024-03-07T07:57:46;2.30;86.30
11229;DHT22;5671;47.936;8.716;2024-03-07T08:00:15;2.30;86.30
11229;DHT22;5671;47.936;8.716;2024-03-07T08:02:49;2.30;85.90
11229;DHT22;5671;47.936;8.716;2024-03-07T08:05:17;2.30;85.60
11229;DHT22;5671;47.936;8.716;2024-03-07T08:07:45;2.30;86.40
11229;DHT22;5671;47.936;8.716;2024-03-07T08:10:13;2.30;86.50
11229;DHT22;5671;47.936;8.716;2024-03-07T08:12:40;2.30;85.70
11229;DHT22;5671;47.936;8.716;2024-03-07T08:15:09;2.30;85.80
11229;DHT22;5671;47.936;8.716;2024-03-07T08:17:40;2.30;85.70
11229;DHT22;5671;47.936;8.716;2024-03-07T08:20:09;2.30;85.80
11229;DHT22;5671;47.936;8.716;2024-03-07T08:22:37;2.30;85.40
11229;DHT22;5671;47.936;8.716;2024-03-07T08:25:06;2.30;85.60
11229;DHT22;5671;47.936;8.716;2024-03-07T08:27:35;2.30;85.60
11229;DHT22;5671;47.936;8.716;2024-03-07T08:30:03;2.30;85.20
11229;DHT22;5671;47.936;8.716;2024-03-07T08:32:31;2.30;85.60
11229;DHT22;5671;47.936;8.716;2024-03-07T08:34:59;2.30;85.70
11229;DHT22;5671;47.936;8.716;2024-03-07T08:37:27;2.30;85.30
11229;DHT22;5671;47.936;8.716;2024-03-07T08:39:54;2.30;85.60
11229;DHT22;5671;47.936;8.716;2024-03-07T08:42:22;2.20;85.80
11229;DHT22;5671;47.936;8.716;2024-03-07T08:44:48;2.20;86.20
11229;DHT22;5671;47.936;8.716;2024-03-07T08:47:15;2.20;85.90
11229;DHT22;5671;47.936;8.716;2024-03-07T08:49:42;2.20;86.20
11229;DHT22;5671;47.936;8.716;2024-03-07T08:52:09;2.20;86.40
11229;DHT22;5671;47.936;8.716;2024-03-07T08:54:36;2.20;86.30
11229;DHT22;5671;47.936;8.716;2024-03-07T08:57:03;2.20;86.80
11229;DHT22;5671;47.936;8.716;2024-03-07T08:59:33;2.20;86.50
11229;DHT22;5671;47.936;8.716;2024-03-07T09:02:00;2.10;86.90
11229;DHT22;5671;47.936;8.716;2024-03-07T09:04:28;2.10;86.90
11229;DHT22;5671;47.936;8.716;2024-03-07T09:06:56;2.10;86.90
11229;DHT22;5671;47.936;8.716;2024-03-07T09:09:24;2.10;87.30
11229;DHT22;5671;47.936;8.716;2024-03-07T09:11:51;2.10;86.90
11229;DHT22;5671;47.936;8.716;2024-03-07T09:14:17;2.10;87.20
11229;DHT22;5671;47.936;8.716;2024-03-07T09:16:46;2.10;86.50
11229;DHT22;5671;47.936;8.716;2024-03-07T09:19:14;2.10;86.00
11229;DHT22;5671;47.936;8.716;2024-03-07T09:21:45;2.00;86.10
11229;DHT22;5671;47.936;8.716;2024-03-07T09:24:12;2.10;86.60
11229;DHT22;5671;47.936;8.716;2024-03-07T09:26:40;2.00;86.60
11229;DHT22;5671;47.936;8.716;2024-03-07T09:29:07;2.00;86.80
11229;DHT22;5671;47.936;8.716;2024-03-07T09:31:36;2.00;87.00
11229;DHT22;5671;47.936;8.716;2024-03-07T09:34:06;2.00;86.50
11229;DHT22;5671;47.936;8.716;2024-03-07T09:36:34;2.00;86.40
11229;DHT22;5671;47.936;8.716;2024-03-07T09:39:01;2.00;86.70
11229;DHT22;5671;47.936;8.716;2024-03-07T09:41:28;2.00;86.80
11229;DHT22;5671;47.936;8.716;2024-03-07T09:43:56;2.00;86.50
11229;DHT22;5671;47.936;8.716;2024-03-07T09:46:24;2.00;86.60
11229;DHT22;5671;47.936;8.716;2024-03-07T09:48:51;2.00;87.00
11229;DHT22;5671;47.936;8.716;2024-03-07T09:51:21;2.00;87.20
11229;DHT22;5671;47.936;8.716;2024-03-07T09:53:49;2.10;86.90
11229;DHT22;5671;47.936;8.716;2024-03-07T09:56:19;2.10;87.20
11229;DHT22;5671;47.936;8.716;2024-03-07T09:58:49;2.10;86.90
11229;DHT22;5671;47.936;8.716;2024-03-07T10:01:18;2.10;86.90
11229;DHT22;5671;47.936;8.716;2024-03-07T10:03:47;2.10;87.10
11229;DHT22;5671;47.936;8.716;2024-03-07T10:06:14;2.10;87.00
11229;DHT22;5671;47.936;8.716;2024-03-07T10:08:43;2.10;86.30
11229;DHT22;5671;47.936;8.716;2024-03-07T10:11:10;2.10;85.80
11229;DHT22;5671;47.936;8.716;2024-03-07T10:13:37;2.10;86.40
11229;DHT22;5671;47.936;8.716;2024-03-07T10:16:05;2.20;86.20
11229;DHT22;5671;47.936;8.716;2024-03-07T10:18:35;2.20;85.70
11229;DHT22;5671;47.936;8.716;2024-03-07T10:21:07;2.20;85.60
11229;DHT22;5671;47.936;8.716;2024-03-07T10:23:35;2.20;85.00
11229;DHT22;5671;47.936;8.716;2024-03-07T10:26:05;2.30;85.00
11229;DHT22;5671;47.936;8.716;2024-03-07T10:28:32;2.30;84.60
11229;DHT22;5671;47.936;8.716;2024-03-07T10:30:59;2.30;84.50
11229;DHT22;5671;47.936;8.716;2024-03-07T10:33:28;2.30;84.00
11229;DHT22;5671;47.936;8.716;2024-03-07T10:35:58;2.30;84.50
11229;DHT22;5671;47.936;8.716;2024-03-07T10:38:26;2.30;84.10
11229;DHT22;5671;47.936;8.716;2024-03-07T10:40:54;2.40;84.10
11229;DHT22;5671;47.936;8.716;2024-03-07T10:43:22;2.40;83.80
11229;DHT22;5671;47.936;8.716;2024-03-07T10:45:51;2.40;84.10
11229;DHT22;5671;47.936;8.716;2024-03-07T10:48:25;2.40;83.70
11229;DHT22;5671;47.936;8.716;2024-03-07T10:51:05;2.40;83.50
11229;DHT22;5671;47.936;8.716;2024-03-07T10:53:40;2.40;84.00
11229;DHT22;5671;47.936;8.716;2024-03-07T10:56:26;2.50;83.50
11229;DHT22;5671;47.936;8.716;2024-03-07T10:59:16;2.50;83.70
11229;DHT22;5671;47.936;8.716;2024-03-07T11:01:48;2.50;83.80
11229;DHT22;5671;47.936;8.716;2024-03-07T11:04:17;2.50;84.20
11229;DHT22;5671;47.936;8.716;2024-03-07T11:06:44;2.50;84.50
11229;DHT22;5671;47.936;8.716;2024-03-07T11:09:11;2.50;84.10
11229;DHT22;5671;47.936;8.716;2024-03-07T11:11:39;2.50;84.60
11229;DHT22;5671;47.936;8.716;2024-03-07T11:14:10;2.60;84.30
11229;DHT22;5671;47.936;8.716;2024-03-07T11:16:38;2.60;84.00
11229;DHT22;5671;47.936;8.716;2024-03-07T11:19:19;2.60;84.10
11229;DHT22;5671;47.936;8.716;2024-03-07T11:21:46;2.60;84.00
11229;DHT22;5671;47.936;8.716;2024-03-07T11:24:23;2.60;83.40
11229;DHT22;5671;47.936;8.716;2024-03-07T11:26:52;2.70;83.90
11229;DHT22;5671;47.936;8.716;2024-03-07T11:29:39;2.70;83.00
11229;DHT22;5671;47.936;8.716;2024-03-07T11:32:09;2.70;81.10
11229;DHT22;5671;47.936;8.716;2024-03-07T11:34:38;2.70;81.40
11229;DHT22;5671;47.936;8.716;2024-03-07T11:37:07;2.80;81.20
11229;DHT22;5671;47.936;8.716;2024-03-07T11:39:43;2.80;81.00
11229;DHT22;5671;47.936;8.716;2024-03-07T11:42:19;2.80;80.30
11229;DHT22;5671;47.936;8.716;2024-03-07T11:44:49;2.80;80.80
11229;DHT22;5671;47.936;8.716;2024-03-07T11:47:16;2.80;80.10
11229;DHT22;5671;47.936;8.716;2024-03-07T11:49:44;2.80;80.50
11229;DHT22;5671;47.936;8.716;2024-03-07T11:52:14;2.80;80.90
11229;DHT22;5671;47.936;8.716;2024-03-07T11:54:42;2.80;81.20
11229;DHT22;5671;47.936;8.716;2024-03-07T11:57:13;2.80;81.30
11229;DHT22;5671;47.936;8.716;2024-03-07T11:59:41;2.90;82.20
11229;DHT22;5671;47.936;8.716;2024-03-07T12:02:12;2.90;81.40
11229;DHT22;5671;47.936;8.716;2024-03-07T12:04:41;2.90;81.20
11229;DHT22;5671;47.936;8.716;2024-03-07T12:07:08;2.90;80.50
11229;DHT22;5671;47.936;8.716;2024-03-07T12:09:37;3.00;79.90
11229;DHT22;5671;47.936;8.716;2024-03-07T12:12:04;2.90;78.80
11229;DHT22;5671;47.936;8.716;2024-03-07T12:14:31;3.00;78.50
11229;DHT22;5671;47.936;8.716;2024-03-07T12:16:59;3.00;78.80
11229;DHT22;5671;47.936;8.716;2024-03-07T12:19:28;2.90;79.20
11229;DHT22;5671;47.936;8.716;2024-03-07T12:21:59;2.90;80.20
11229;DHT22;5671;47.936;8.716;2024-03-07T12:24:26;2.90;81.30
11229;DHT22;5671;47.936;8.716;2024-03-07T12:27:03;3.00;81.10
11229;DHT22;5671;47.936;8.716;2024-03-07T12:29:30;3.00;79.60
11229;DHT22;5671;47.936;8.716;2024-03-07T12:31:58;3.00;78.60
11229;DHT22;5671;47.936;8.716;2024-03-07T12:34:27;3.00;79.00
11229;DHT22;5671;47.936;8.716;2024-03-07T12:36:56;2.90;78.50
11229;DHT22;5671;47.936;8.716;2024-03-07T12:39:23;3.00;77.30
11229;DHT22;5671;47.936;8.716;2024-03-07T12:42:02;3.00;78.00
11229;DHT22;5671;47.936;8.716;2024-03-07T12:44:39;3.00;77.30
11229;DHT22;5671;47.936;8.716;2024-03-07T12:47:09;3.00;79.10
11229;DHT22;5671;47.936;8.716;2024-03-07T12:49:37;3.00;77.50
11229;DHT22;5671;47.936;8.716;2024-03-07T12:52:05;3.00;78.20
11229;DHT22;5671;47.936;8.716;2024-03-07T12:54:34;3.00;77.70
11229;DHT22;5671;47.936;8.716;2024-03-07T12:57:03;3.00;79.40
11229;DHT22;5671;47.936;8.716;2024-03-07T12:59:31;3.10;78.30
11229;DHT22;5671;47.936;8.716;2024-03-07T13:01:58;3.10;78.40
11229;DHT22;5671;47.936;8.716;2024-03-07T13:04:24;3.10;78.90
11229;DHT22;5671;47.936;8.716;2024-03-07T13:06:54;3.10;78.90
11229;DHT22;5671;47.936;8.716;2024-03-07T13:09:42;3.00;78.50
11229;DHT22;5671;47.936;8.716;2024-03-07T13:12:10;3.00;78.00
11229;DHT22;5671;47.936;8.716;2024-03-07T13:14:39;3.00;78.60
11229;DHT22;5671;47.936;8.716;2024-03-07T13:17:08;3.00;78.40
11229;DHT22;5671;47.936;8.716;2024-03-07T13:19:36;3.00;78.10
11229;DHT22;5671;47.936;8.716;2024-03-07T13:22:04;3.00;78.20
11229;DHT22;5671;47.936;8.716;2024-03-07T13:24:32;3.00;78.60
11229;DHT22;5671;47.936;8.716;2024-03-07T13:27:02;3.00;78.70
11229;DHT22;5671;47.936;8.716;2024-03-07T13:29:29;3.00;78.60
11229;DHT22;5671;47.936;8.716;2024-03-07T13:31:56;3.00;78.90
11229;DHT22;5671;47.936;8.716;2024-03-07T13:34:23;2.90;77.90
11229;DHT22;5671;47.936;8.716;2024-03-07T13:36:52;2.90;77.70
11229;DHT22;5671;47.936;8.716;2024-03-07T13:39:18;2.80;78.40
11229;DHT22;5671;47.936;8.716;2024-03-07T13:41:45;2.90;78.40
11229;DHT22;5671;47.936;8.716;2024-03-07T13:44:15;2.80;78.40
11229;DHT22;5671;47.936;8.716;2024-03-07T13:46:43;2.90;78.80
11229;DHT22;5671;47.936;8.716;2024-03-07T13:49:10;2.80;78.50
11229;DHT22;5671;47.936;8.716;2024-03-07T13:51:39;2.80;78.50
11229;DHT22;5671;47.936;8.716;2024-03-07T13:54:15;2.80;79.20
11229;DHT22;5671;47.936;8.716;2024-03-07T13:57:09;2.80;79.30
11229;DHT22;5671;47.936;8.716;2024-03-07T14:00:00;2.80;79.30
11229;DHT22;5671;47.936;8.716;2024-03-07T14:05:54;2.80;78.70
11229;DHT22;5671;47.936;8.716;2024-03-07T14:08:52;2.80;78.70
11229;DHT22;5671;47.936;8.716;2024-03-07T14:11:53;2.70;79.00
11229;DHT22;5671;47.936;8.716;2024-03-07T14:14:48;2.70;78.10
11229;DHT22;5671;47.936;8.716;2024-03-07T14:17:53;2.70;78.20
11229;DHT22;5671;47.936;8.716;2024-03-07T14:20:51;2.70;79.00
11229;DHT22;5671;47.936;8.716;2024-03-07T14:23:31;2.70;78.60
11229;DHT22;5671;47.936;8.716;2024-03-07T14:29:20;2.60;79.20
11229;DHT22;5671;47.936;8.716;2024-03-07T14:31:48;2.60;79.80
11229;DHT22;5671;47.936;8.716;2024-03-07T14:34:24;2.60;80.10
11229;DHT22;5671;47.936;8.716;2024-03-07T14:36:57;2.60;79.30
11229;DHT22;5671;47.936;8.716;2024-03-07T14:39:29;2.60;79.20
11229;DHT22;5671;47.936;8.716;2024-03-07T14:42:01;2.50;78.80
11229;DHT22;5671;47.936;8.716;2024-03-07T14:44:31;2.50;78.50
11229;DHT22;5671;47.936;8.716;2024-03-07T14:47:00;2.50;77.90
11229;DHT22;5671;47.936;8.716;2024-03-07T14:49:29;2.50;78.10
11229;DHT22;5671;47.936;8.716;2024-03-07T14:51:56;2.50;78.30
11229;DHT22;5671;47.936;8.716;2024-03-07T14:54:23;2.50;78.70
11229;DHT22;5671;47.936;8.716;2024-03-07T14:56:50;2.50;78.20
11229;DHT22;5671;47.936;8.716;2024-03-07T14:59:18;2.50;78.20
11229;DHT22;5671;47.936;8.716;2024-03-07T15:01:46;2.50;78.30
11229;DHT22;5671;47.936;8.716;2024-03-07T15:04:14;2.50;78.30
11229;DHT22;5671;47.936;8.716;2024-03-07T15:06:42;2.50;78.80
11229;DHT22;5671;47.936;8.716;2024-03-07T15:09:11;2.50;78.70
11229;DHT22;5671;47.936;8.716;2024-03-07T15:11:39;2.50;78.80
11229;DHT22;5671;47.936;8.716;2024-03-07T15:14:06;2.40;78.80
11229;DHT22;5671;47.936;8.716;2024-03-07T15:16:34;2.50;78.90
11229;DHT22;5671;47.936;8.716;2024-03-07T15:19:03;2.50;78.60
11229;DHT22;5671;47.936;8.716;2024-03-07T15:21:30;2.50;78.10
11229;DHT22;5671;47.936;8.716;2024-03-07T15:23:58;2.50;78.10
11229;DHT22;5671;47.936;8.716;2024-03-07T15:26:25;2.50;78.20
11229;DHT22;5671;47.936;8.716;2024-03-07T15:28:53;2.50;78.40
11229;DHT22;5671;47.936;8.716;2024-03-07T15:31:20;2.50;78.50
11229;DHT22;5671;47.936;8.716;2024-03-07T15:33:47;2.50;78.50
11229;DHT22;5671;47.936;8.716;2024-03-07T15:36:15;2.50;78.40
11229;DHT22;5671;47.936;8.716;2024-03-07T15:38:43;2.50;78.90
11229;DHT22;5671;47.936;8.716;2024-03-07T15:41:12;2.40;79.10
11229;DHT22;5671;47.936;8.716;2024-03-07T15:43:39;2.40;79.40
11229;DHT22;5671;47.936;8.716;2024-03-07T15:46:08;2.40;79.50
11229;DHT22;5671;47.936;8.716;2024-03-07T15:48:36;2.40;79.70
11229;DHT22;5671;47.936;8.716;2024-03-07T15:51:03;2.40;79.60
11229;DHT22;5671;47.936;8.716;2024-03-07T15:53:32;2.40;79.60
11229;DHT22;5671;47.936;8.716;2024-03-07T15:55:59;2.40;79.70
11229;DHT22;5671;47.936;8.716;2024-03-07T15:58:27;2.50;79.60
11229;DHT22;5671;47.936;8.716;2024-03-07T16:00:54;2.50;79.50
11229;DHT22;5671;47.936;8.716;2024-03-07T16:03:21;2.50;79.30
11229;DHT22;5671;47.936;8.716;2024-03-07T16:05:50;2.50;79.30
11229;DHT22;5671;47.936;8.716;2024-03-07T16:08:18;2.40;79.50
11229;DHT22;5671;47.936;8.716;2024-03-07T16:10:45;2.50;79.70
11229;DHT22;5671;47.936;8.716;2024-03-07T16:13:13;2.50;79.50
11229;DHT22;5671;47.936;8.716;2024-03-07T16:15:43;2.50;79.30
11229;DHT22;5671;47.936;8.716;2024-03-07T16:18:10;2.50;79.40